sensor_id;sensor_type;location;lat;lon;timestamp;pressure;altitude;pressure_sealevel;temperature;humidity
52745;BME280;38637;49.984;20.426;2022-11-15T00:00:00;99730.88;;;6.43;87.84
52745;BME280;38637;49.984;20.426;2022-11-15T00:02:26;99724.63;;;6.43;88.04
52745;BME280;38637;49.984;20.426;2022-11-15T00:04:51;99718.13;;;6.44;88.26
52745;BME280;38637;49.984;20.426;2022-11-15T00:07:16;99719.31;;;6.48;88.39
52745;BME280;38637;49.984;20.426;2022-11-15T00:09:41;99711.56;;;6.52;88.43
52745;BME280;38637;49.984;20.426;2022-11-15T00:12:07;99710.06;;;6.56;88.35
52745;BME280;38637;49.984;20.426;2022-11-15T00:14:32;99711.72;;;6.57;88.32
52745;BME280;38637;49.984;20.426;2022-11-15T00:16:57;99713.59;;;6.56;88.29
52745;BME280;38637;49.984;20.426;2022-11-15T00:19:22;99712.31;;;6.59;88.14
52745;BME280;38637;49.984;20.426;2022-11-15T00:21:47;99700.41;;;6.60;88.01
52745;BME280;38637;49.984;20.426;2022-11-15T00:24:13;99706.66;;;6.60;87.77
52745;BME280;38637;49.984;20.426;2022-11-15T00:26:38;99706.44;;;6.62;87.81
52745;BME280;38637;49.984;20.426;2022-11-15T00:29:03;99700.19;;;6.61;87.70
52745;BME280;38637;49.984;20.426;2022-11-15T00:31:28;99703.72;;;6.62;87.65
52745;BME280;38637;49.984;20.426;2022-11-15T00:33:54;99697.69;;;6.60;87.58
52745;BME280;38637;49.984;20.426;2022-11-15T00:36:19;99694.38;;;6.58;87.65
52745;BME280;38637;49.984;20.426;2022-11-15T00:38:44;99694.63;;;6.56;87.67
52745;BME280;38637;49.984;20.426;2022-11-15T00:41:09;99689.19;;;6.56;87.67
52745;BME280;38637;49.984;20.426;2022-11-15T00:43:35;99683.75;;;6.56;87.74
52745;BME280;38637;49.984;20.426;2022-11-15T00:46:00;99684.81;;;6.55;87.71
52745;BME280;38637;49.984;20.426;2022-11-15T00:48:27;99677.72;;;6.54;87.81
52745;BME280;38637;49.984;20.426;2022-11-15T00:50:52;99671.03;;;6.57;87.73
52745;BME280;38637;49.984;20.426;2022-11-15T00:53:17;99667.25;;;6.58;87.91
52745;BME280;38637;49.984;20.426;2022-11-15T00:55:42;99668.09;;;6.58;87.92
52745;BME280;38637;49.984;20.426;2022-11-15T00:58:08;99665.13;;;6.60;87.99
52745;BME280;38637;49.984;20.426;2022-11-15T01:00:33;99663.25;;;6.60;88.06
52745;BME280;38637;49.984;20.426;2022-11-15T01:03:02;99666.41;;;6.57;88.21
52745;BME280;38637;49.984;20.426;2022-11-15T01:05:27;99663.50;;;6.59;87.94
52745;BME280;38637;49.984;20.426;2022-11-15T01:07:53;99661.00;;;6.57;87.78
52745;BME280;38637;49.984;20.426;2022-11-15T01:10:19;99648.25;;;6.58;87.95
52745;BME280;38637;49.984;20.426;2022-11-15T01:12:44;99647.41;;;6.57;87.83
52745;BME280;38637;49.984;20.426;2022-11-15T01:15:09;99659.56;;;6.55;87.79
52745;BME280;38637;49.984;20.426;2022-11-15T01:17:35;99652.47;;;6.54;87.89
52745;BME280;38637;49.984;20.426;2022-11-15T01:20:00;99654.13;;;6.55;87.85
52745;BME280;38637;49.984;20.426;2022-11-15T01:22:25;99648.34;;;6.51;87.83
52745;BME280;38637;49.984;20.426;2022-11-15T01:24:50;99652.94;;;6.51;88.01
52745;BME280;38637;49.984;20.426;2022-11-15T01:27:16;99650.47;;;6.49;88.01
52745;BME280;38637;49.984;20.426;2022-11-15T01:29:41;99650.94;;;6.46;88.04
52745;BME280;38637;49.984;20.426;2022-11-15T01:32:06;99648.22;;;6.46;88.54
52745;BME280;38637;49.984;20.426;2022-11-15T01:34:32;99644.44;;;6.47;88.23
52745;BME280;38637;49.984;20.426;2022-11-15T01:36:57;99647.59;;;6.44;88.27
52745;BME280;38637;49.984;20.426;2022-11-15T01:39:22;99647.81;;;6.42;88.27
52745;BME280;38637;49.984;20.426;2022-11-15T01:41:48;99640.53;;;6.43;88.58
52745;BME280;38637;49.984;20.426;2022-11-15T01:46:56;99632.59;;;6.41;87.98
52745;BME280;38637;49.984;20.426;2022-11-15T01:49:23;99638.72;;;6.37;87.76
52745;BME280;38637;49.984;20.426;2022-11-15T01:51:48;99633.97;;;6.32;88.23
52745;BME280;38637;49.984;20.426;2022-11-15T01:54:15;99626.28;;;6.29;88.44
52745;BME280;38637;49.984;20.426;2022-11-15T01:56:43;99636.78;;;6.26;88.35
52745;BME280;38637;49.984;20.426;2022-11-15T01:59:12;99627.81;;;6.25;88.54
52745;BME280;38637;49.984;20.426;2022-11-15T02:01:37;99626.75;;;6.26;88.69
52745;BME280;38637;49.984;20.426;2022-11-15T02:04:13;99625.69;;;6.27;88.87
52745;BME280;38637;49.984;20.426;2022-11-15T02:06:41;99615.75;;;6.21;88.92
52745;BME280;38637;49.984;20.426;2022-11-15T02:09:07;99614.91;;;6.20;88.99
52745;BME280;38637;49.984;20.426;2022-11-15T02:11:32;99622.47;;;6.18;89.15
52745;BME280;38637;49.984;20.426;2022-11-15T02:13:58;99614.91;;;6.20;89.18
52745;BME280;38637;49.984;20.426;2022-11-15T02:21:40;99616.59;;;6.21;88.80
52745;BME280;38637;49.984;20.426;2022-11-15T02:24:11;99612.00;;;6.22;88.79
52745;BME280;38637;49.984;20.426;2022-11-15T02:29:07;99617.50;;;6.15;88.50
52745;BME280;38637;49.984;20.426;2022-11-15T02:39:21;99621.34;;;6.08;88.37
52745;BME280;38637;49.984;20.426;2022-11-15T02:41:51;99618.09;;;5.99;88.83
52745;BME280;38637;49.984;20.426;2022-11-15T02:44:24;99611.63;;;6.00;89.26
52745;BME280;38637;49.984;20.426;2022-11-15T02:49:37;99605.97;;;6.02;88.55
52745;BME280;38637;49.984;20.426;2022-11-15T02:52:02;99608.53;;;5.96;88.40
52745;BME280;38637;49.984;20.426;2022-11-15T02:54:31;99601.88;;;5.92;88.10
52745;BME280;38637;49.984;20.426;2022-11-15T02:57:01;99602.13;;;5.91;88.35
52745;BME280;38637;49.984;20.426;2022-11-15T03:04:51;99600.84;;;5.93;88.69
52745;BME280;38637;49.984;20.426;2022-11-15T03:07:26;99596.69;;;5.91;88.61
52745;BME280;38637;49.984;20.426;2022-11-15T03:09:56;99589.47;;;5.85;88.95
52745;BME280;38637;49.984;20.426;2022-11-15T03:14:53;99585.91;;;5.84;89.08
52745;BME280;38637;49.984;20.426;2022-11-15T03:17:30;99585.25;;;5.89;89.20
52745;BME280;38637;49.984;20.426;2022-11-15T03:19:59;99582.91;;;5.92;88.85
52745;BME280;38637;49.984;20.426;2022-11-15T03:22:26;99577.31;;;5.94;88.96
52745;BME280;38637;49.984;20.426;2022-11-15T03:24:53;99578.34;;;5.93;88.68
52745;BME280;38637;49.984;20.426;2022-11-15T03:27:21;99577.06;;;5.95;88.60
52745;BME280;38637;49.984;20.426;2022-11-15T03:29:50;99566.22;;;5.95;88.69
52745;BME280;38637;49.984;20.426;2022-11-15T03:32:17;99566.00;;;5.97;88.80
52745;BME280;38637;49.984;20.426;2022-11-15T03:37:12;99567.66;;;5.98;88.49
52745;BME280;38637;49.984;20.426;2022-11-15T03:39:39;99563.06;;;5.98;88.18
52745;BME280;38637;49.984;20.426;2022-11-15T03:44:35;99558.44;;;5.99;88.17
52745;BME280;38637;49.984;20.426;2022-11-15T03:47:18;99556.56;;;5.99;88.20
52745;BME280;38637;49.984;20.426;2022-11-15T03:49:46;99555.38;;;5.95;87.96
52745;BME280;38637;49.984;20.426;2022-11-15T03:52:17;99550.38;;;5.92;87.81
52745;BME280;38637;49.984;20.426;2022-11-15T03:54:56;99552.06;;;5.93;87.52
52745;BME280;38637;49.984;20.426;2022-11-15T03:57:21;99547.31;;;5.89;87.06
52745;BME280;38637;49.984;20.426;2022-11-15T03:59:47;99543.16;;;5.86;86.70
52745;BME280;38637;49.984;20.426;2022-11-15T04:02:12;99545.25;;;5.84;86.93
52745;BME280;38637;49.984;20.426;2022-11-15T04:04:37;99533.84;;;5.82;86.67
52745;BME280;38637;49.984;20.426;2022-11-15T04:07:02;99530.97;;;5.77;86.29
52745;BME280;38637;49.984;20.426;2022-11-15T04:09:28;99532.25;;;5.74;86.26
52745;BME280;38637;49.984;20.426;2022-11-15T04:11:53;99528.09;;;5.72;86.36
52745;BME280;38637;49.984;20.426;2022-11-15T04:14:18;99529.59;;;5.68;85.96
52745;BME280;38637;49.984;20.426;2022-11-15T04:16:43;99523.00;;;5.64;85.61
52745;BME280;38637;49.984;20.426;2022-11-15T04:19:09;99530.31;;;5.63;84.89
52745;BME280;38637;49.984;20.426;2022-11-15T04:21:53;99522.00;;;5.58;84.75
52745;BME280;38637;49.984;20.426;2022-11-15T04:24:36;99519.16;;;5.53;84.65
52745;BME280;38637;49.984;20.426;2022-11-15T04:27:01;99512.28;;;5.50;84.83
52745;BME280;38637;49.984;20.426;2022-11-15T04:29:27;99509.81;;;5.49;84.46
52745;BME280;38637;49.984;20.426;2022-11-15T04:32:05;99504.47;;;5.42;84.40
52745;BME280;38637;49.984;20.426;2022-11-15T04:34:31;99499.06;;;5.42;84.76
52745;BME280;38637;49.984;20.426;2022-11-15T04:36:56;99503.88;;;5.40;84.59
52745;BME280;38637;49.984;20.426;2022-11-15T04:39:37;99498.69;;;5.39;84.34
52745;BME280;38637;49.984;20.426;2022-11-15T04:42:02;99497.25;;;5.36;84.59
52745;BME280;38637;49.984;20.426;2022-11-15T04:44:27;99495.00;;;5.33;83.98
52745;BME280;38637;49.984;20.426;2022-11-15T04:46:53;99494.38;;;5.31;84.07
52745;BME280;38637;49.984;20.426;2022-11-15T04:49:18;99489.41;;;5.28;84.09
52745;BME280;38637;49.984;20.426;2022-11-15T04:51:43;99490.09;;;5.23;83.90
52745;BME280;38637;49.984;20.426;2022-11-15T04:54:08;99483.47;;;5.19;83.97
52745;BME280;38637;49.984;20.426;2022-11-15T04:56:34;99481.44;;;5.15;83.61
52745;BME280;38637;49.984;20.426;2022-11-15T04:58:59;99476.59;;;5.17;83.88
52745;BME280;38637;49.984;20.426;2022-11-15T05:01:24;99469.31;;;5.17;83.99
52745;BME280;38637;49.984;20.426;2022-11-15T05:03:49;99466.84;;;5.16;83.28
52745;BME280;38637;49.984;20.426;2022-11-15T05:06:33;99470.38;;;5.16;83.82
52745;BME280;38637;49.984;20.426;2022-11-15T05:08:59;99466.59;;;5.17;83.92
52745;BME280;38637;49.984;20.426;2022-11-15T05:11:24;99460.59;;;5.15;83.76
52745;BME280;38637;49.984;20.426;2022-11-15T05:13:49;99453.75;;;5.13;83.45
52745;BME280;38637;49.984;20.426;2022-11-15T05:16:15;99455.84;;;5.11;84.03
52745;BME280;38637;49.984;20.426;2022-11-15T05:18:40;99448.78;;;5.10;83.54
52745;BME280;38637;49.984;20.426;2022-11-15T05:21:06;99454.41;;;5.08;83.60
52745;BME280;38637;49.984;20.426;2022-11-15T05:23:32;99450.69;;;5.09;83.71
52745;BME280;38637;49.984;20.426;2022-11-15T05:26:03;99454.41;;;5.08;83.31
52745;BME280;38637;49.984;20.426;2022-11-15T05:28:29;99457.38;;;5.06;83.56
52745;BME280;38637;49.984;20.426;2022-11-15T05:31:00;99452.16;;;5.05;82.95
52745;BME280;38637;49.984;20.426;2022-11-15T05:33:25;99452.16;;;5.05;83.46
52745;BME280;38637;49.984;20.426;2022-11-15T05:35:54;99463.59;;;5.07;83.16
52745;BME280;38637;49.984;20.426;2022-11-15T05:38:20;99464.03;;;5.04;83.23
52745;BME280;38637;49.984;20.426;2022-11-15T05:40:45;99458.47;;;4.99;83.92
52745;BME280;38637;49.984;20.426;2022-11-15T05:43:10;99466.38;;;5.00;83.96
52745;BME280;38637;49.984;20.426;2022-11-15T05:45:36;99457.88;;;4.97;84.16
52745;BME280;38637;49.984;20.426;2022-11-15T05:48:03;99444.88;;;4.87;84.36
52745;BME280;38637;49.984;20.426;2022-11-15T05:50:29;99444.69;;;4.82;84.83
52745;BME280;38637;49.984;20.426;2022-11-15T05:52:54;99432.59;;;4.84;86.10
52745;BME280;38637;49.984;20.426;2022-11-15T05:55:20;99437.19;;;4.84;85.86
52745;BME280;38637;49.984;20.426;2022-11-15T05:57:45;99438.00;;;4.84;86.59
52745;BME280;38637;49.984;20.426;2022-11-15T06:00:10;99437.78;;;4.86;86.04
52745;BME280;38637;49.984;20.426;2022-11-15T06:02:36;99436.88;;;4.92;86.38
52745;BME280;38637;49.984;20.426;2022-11-15T06:05:01;99434.19;;;4.92;86.31
52745;BME280;38637;49.984;20.426;2022-11-15T06:07:26;99440.66;;;4.91;86.04
52745;BME280;38637;49.984;20.426;2022-11-15T06:09:53;99446.28;;;4.90;86.49
52745;BME280;38637;49.984;20.426;2022-11-15T06:12:18;99433.34;;;4.92;86.85
52745;BME280;38637;49.984;20.426;2022-11-15T06:14:43;99434.78;;;4.94;86.64
52745;BME280;38637;49.984;20.426;2022-11-15T06:17:09;99445.81;;;4.93;86.88
52745;BME280;38637;49.984;20.426;2022-11-15T06:19:34;99436.22;;;4.97;86.98
52745;BME280;38637;49.984;20.426;2022-11-15T06:21:59;99435.78;;;5.00;85.96
52745;BME280;38637;49.984;20.426;2022-11-15T06:24:25;99444.72;;;5.00;86.11
52745;BME280;38637;49.984;20.426;2022-11-15T06:26:50;99449.97;;;4.95;86.47
52745;BME280;38637;49.984;20.426;2022-11-15T06:29:15;99437.50;;;4.94;86.92
52745;BME280;38637;49.984;20.426;2022-11-15T06:31:40;99432.47;;;4.98;86.64
52745;BME280;38637;49.984;20.426;2022-11-15T06:34:06;99431.19;;;5.00;86.42
52745;BME280;38637;49.984;20.426;2022-11-15T06:36:31;99440.75;;;5.03;86.63
52745;BME280;38637;49.984;20.426;2022-11-15T06:38:58;99424.06;;;5.06;86.55
52745;BME280;38637;49.984;20.426;2022-11-15T06:41:25;99420.66;;;5.11;86.49
52745;BME280;38637;49.984;20.426;2022-11-15T06:43:50;99427.50;;;5.13;86.55
52745;BME280;38637;49.984;20.426;2022-11-15T06:46:15;99429.69;;;5.23;86.13
52745;BME280;38637;49.984;20.426;2022-11-15T06:48:40;99430.91;;;5.27;85.34
52745;BME280;38637;49.984;20.426;2022-11-15T06:51:06;99442.78;;;5.26;85.07
52745;BME280;38637;49.984;20.426;2022-11-15T06:53:32;99437.38;;;5.26;84.64
52745;BME280;38637;49.984;20.426;2022-11-15T06:55:58;99443.41;;;5.28;84.19
52745;BME280;38637;49.984;20.426;2022-11-15T06:58:23;99447.53;;;5.30;83.83
52745;BME280;38637;49.984;20.426;2022-11-15T07:00:49;99445.44;;;5.33;83.56
52745;BME280;38637;49.984;20.426;2022-11-15T07:03:14;99437.91;;;5.35;83.49
52745;BME280;38637;49.984;20.426;2022-11-15T07:05:39;99438.72;;;5.35;82.55
52745;BME280;38637;49.984;20.426;2022-11-15T07:08:04;99432.28;;;5.36;82.64
52745;BME280;38637;49.984;20.426;2022-11-15T07:10:29;99430.38;;;5.37;82.26
52745;BME280;38637;49.984;20.426;2022-11-15T07:12:55;99429.31;;;5.38;82.61
52745;BME280;38637;49.984;20.426;2022-11-15T07:15:22;99420.81;;;5.34;82.38
52745;BME280;38637;49.984;20.426;2022-11-15T07:17:47;99401.06;;;5.15;82.45
52745;BME280;38637;49.984;20.426;2022-11-15T07:20:13;99394.81;;;5.15;83.26
52745;BME280;38637;49.984;20.426;2022-11-15T07:22:38;99429.47;;;5.43;83.05
52745;BME280;38637;49.984;20.426;2022-11-15T07:25:04;99422.53;;;5.47;83.75
52745;BME280;38637;49.984;20.426;2022-11-15T07:27:29;99411.97;;;5.45;83.58
52745;BME280;38637;49.984;20.426;2022-11-15T07:29:54;99403.22;;;5.43;83.94
52745;BME280;38637;49.984;20.426;2022-11-15T07:32:19;99409.47;;;5.44;83.93
52745;BME280;38637;49.984;20.426;2022-11-15T07:34:45;99400.75;;;5.42;84.06
52745;BME280;38637;49.984;20.426;2022-11-15T07:37:11;99405.78;;;5.38;83.87
52745;BME280;38637;49.984;20.426;2022-11-15T07:39:36;99397.59;;;5.45;84.00
52745;BME280;38637;49.984;20.426;2022-11-15T07:42:02;99393.88;;;5.58;84.05
52745;BME280;38637;49.984;20.426;2022-11-15T07:44:46;99392.97;;;5.64;83.59
52745;BME280;38637;49.984;20.426;2022-11-15T07:47:11;99400.63;;;5.67;83.22
52745;BME280;38637;49.984;20.426;2022-11-15T07:49:36;99408.75;;;5.67;82.76
52745;BME280;38637;49.984;20.426;2022-11-15T07:52:02;99392.72;;;5.65;82.97
52745;BME280;38637;49.984;20.426;2022-11-15T07:54:27;99384.69;;;5.59;82.74
52745;BME280;38637;49.984;20.426;2022-11-15T07:56:52;99385.84;;;5.51;83.48
52745;BME280;38637;49.984;20.426;2022-11-15T07:59:17;99379.00;;;5.48;83.54
52745;BME280;38637;49.984;20.426;2022-11-15T08:01:44;99370.19;;;5.53;83.80
52745;BME280;38637;49.984;20.426;2022-11-15T08:04:10;99362.81;;;5.60;83.20
52745;BME280;38637;49.984;20.426;2022-11-15T08:06:36;99363.38;;;5.62;83.26
52745;BME280;38637;49.984;20.426;2022-11-15T08:09:01;99356.53;;;5.60;82.89
52745;BME280;38637;49.984;20.426;2022-11-15T08:11:26;99354.28;;;5.57;83.04
52745;BME280;38637;49.984;20.426;2022-11-15T08:13:51;99371.41;;;5.57;83.29
52745;BME280;38637;49.984;20.426;2022-11-15T08:16:17;99358.75;;;5.51;83.42
52745;BME280;38637;49.984;20.426;2022-11-15T08:18:42;99357.69;;;5.52;83.13
52745;BME280;38637;49.984;20.426;2022-11-15T08:21:09;99364.09;;;5.58;82.80
52745;BME280;38637;49.984;20.426;2022-11-15T08:23:34;99364.81;;;5.65;83.16
52745;BME280;38637;49.984;20.426;2022-11-15T08:26:00;99360.63;;;5.81;82.80
52745;BME280;38637;49.984;20.426;2022-11-15T08:28:26;99371.50;;;5.92;82.34
52745;BME280;38637;49.984;20.426;2022-11-15T08:30:51;99365.72;;;5.89;82.00
52745;BME280;38637;49.984;20.426;2022-11-15T08:33:17;99357.44;;;5.84;82.17
52745;BME280;38637;49.984;20.426;2022-11-15T08:35:43;99353.31;;;5.81;82.73
52745;BME280;38637;49.984;20.426;2022-11-15T08:38:10;99354.16;;;5.82;82.71
52745;BME280;38637;49.984;20.426;2022-11-15T08:40:35;99355.34;;;5.86;82.98
52745;BME280;38637;49.984;20.426;2022-11-15T08:43:00;99357.69;;;5.82;82.92
52745;BME280;38637;49.984;20.426;2022-11-15T08:45:27;99359.34;;;5.83;82.81
52745;BME280;38637;49.984;20.426;2022-11-15T08:47:53;99358.28;;;5.84;82.92
52745;BME280;38637;49.984;20.426;2022-11-15T08:50:18;99363.59;;;5.79;82.91
52745;BME280;38637;49.984;20.426;2022-11-15T08:52:43;99362.06;;;5.83;83.25
52745;BME280;38637;49.984;20.426;2022-11-15T08:55:08;99368.19;;;5.90;83.26
52745;BME280;38637;49.984;20.426;2022-11-15T08:57:33;99364.72;;;6.02;83.08
52745;BME280;38637;49.984;20.426;2022-11-15T08:59:59;99365.47;;;6.20;82.79
52745;BME280;38637;49.984;20.426;2022-11-15T09:02:24;99362.91;;;6.37;82.91
52745;BME280;38637;49.984;20.426;2022-11-15T09:04:49;99361.59;;;6.52;82.63
52745;BME280;38637;49.984;20.426;2022-11-15T09:07:14;99361.13;;;6.55;82.46
52745;BME280;38637;49.984;20.426;2022-11-15T09:09:40;99351.56;;;6.64;82.12
52745;BME280;38637;49.984;20.426;2022-11-15T09:12:06;99345.09;;;6.77;82.29
52745;BME280;38637;49.984;20.426;2022-11-15T09:14:31;99347.34;;;6.80;82.05
52745;BME280;38637;49.984;20.426;2022-11-15T09:16:57;99359.50;;;6.89;82.05
52745;BME280;38637;49.984;20.426;2022-11-15T09:19:23;99342.34;;;7.00;81.84
52745;BME280;38637;49.984;20.426;2022-11-15T09:21:48;99347.63;;;7.07;81.54
52745;BME280;38637;49.984;20.426;2022-11-15T09:24:13;99336.56;;;7.08;80.96
52745;BME280;38637;49.984;20.426;2022-11-15T09:26:39;99331.72;;;7.10;80.99
52745;BME280;38637;49.984;20.426;2022-11-15T09:29:04;99329.34;;;7.14;81.17
52745;BME280;38637;49.984;20.426;2022-11-15T09:31:29;99344.06;;;7.18;81.12
52745;BME280;38637;49.984;20.426;2022-11-15T09:33:55;99326.47;;;7.21;81.31
52745;BME280;38637;49.984;20.426;2022-11-15T09:36:20;99330.59;;;7.23;81.18
52745;BME280;38637;49.984;20.426;2022-11-15T09:38:45;99321.28;;;7.19;81.07
52745;BME280;38637;49.984;20.426;2022-11-15T09:46:26;99319.16;;;7.21;81.38
52745;BME280;38637;49.984;20.426;2022-11-15T09:48:57;99313.34;;;7.29;80.92
52745;BME280;38637;49.984;20.426;2022-11-15T09:51:34;99308.25;;;7.33;81.03
52745;BME280;38637;49.984;20.426;2022-11-15T09:54:04;99304.22;;;7.35;81.27
52745;BME280;38637;49.984;20.426;2022-11-15T09:56:31;99299.47;;;7.43;81.00
52745;BME280;38637;49.984;20.426;2022-11-15T10:01:44;99291.75;;;7.51;81.13
52745;BME280;38637;49.984;20.426;2022-11-15T10:04:11;99294.81;;;7.55;81.32
52745;BME280;38637;49.984;20.426;2022-11-15T10:06:38;99288.66;;;7.59;81.53
52745;BME280;38637;49.984;20.426;2022-11-15T10:09:09;99284.13;;;7.65;81.55
52745;BME280;38637;49.984;20.426;2022-11-15T10:11:37;99285.84;;;7.71;81.30
52745;BME280;38637;49.984;20.426;2022-11-15T10:14:05;99286.28;;;7.80;81.17
52745;BME280;38637;49.984;20.426;2022-11-15T10:19:21;99270.50;;;7.94;80.96
52745;BME280;38637;49.984;20.426;2022-11-15T10:24:22;99270.09;;;8.02;80.95
52745;BME280;38637;49.984;20.426;2022-11-15T10:26:49;99268.19;;;8.02;81.11
52745;BME280;38637;49.984;20.426;2022-11-15T10:29:19;99263.47;;;7.98;81.05
52745;BME280;38637;49.984;20.426;2022-11-15T10:31:45;99264.47;;;7.92;81.25
52745;BME280;38637;49.984;20.426;2022-11-15T10:34:11;99263.63;;;7.91;81.14
52745;BME280;38637;49.984;20.426;2022-11-15T10:36:37;99251.44;;;7.94;81.27
52745;BME280;38637;49.984;20.426;2022-11-15T10:39:03;99261.25;;;7.95;81.52
52745;BME280;38637;49.984;20.426;2022-11-15T10:49:30;99233.66;;;8.03;81.48
52745;BME280;38637;49.984;20.426;2022-11-15T10:54:35;99233.75;;;8.08;82.24
52745;BME280;38637;49.984;20.426;2022-11-15T10:57:06;99219.06;;;8.09;82.11
52745;BME280;38637;49.984;20.426;2022-11-15T10:59:32;99215.84;;;8.12;82.20
52745;BME280;38637;49.984;20.426;2022-11-15T11:02:00;99218.69;;;8.22;82.58
52745;BME280;38637;49.984;20.426;2022-11-15T11:04:25;99208.50;;;8.29;82.68
52745;BME280;38637;49.984;20.426;2022-11-15T11:06:51;99199.81;;;8.33;82.22
52745;BME280;38637;49.984;20.426;2022-11-15T11:09:33;99201.31;;;8.40;82.32
52745;BME280;38637;49.984;20.426;2022-11-15T11:12:00;99184.56;;;8.48;82.32
52745;BME280;38637;49.984;20.426;2022-11-15T11:14:27;99185.19;;;8.56;82.19
52745;BME280;38637;49.984;20.426;2022-11-15T11:19:51;99177.72;;;8.68;82.64
52745;BME280;38637;49.984;20.426;2022-11-15T11:30:20;99180.38;;;8.85;82.50
52745;BME280;38637;49.984;20.426;2022-11-15T11:33:00;99180.91;;;8.87;82.34
52745;BME280;38637;49.984;20.426;2022-11-15T11:35:34;99145.09;;;8.73;82.15
52745;BME280;38637;49.984;20.426;2022-11-15T11:38:09;99170.84;;;8.87;82.47
52745;BME280;38637;49.984;20.426;2022-11-15T11:40:41;99163.25;;;8.89;82.44
52745;BME280;38637;49.984;20.426;2022-11-15T11:43:23;99161.66;;;8.93;82.26
52745;BME280;38637;49.984;20.426;2022-11-15T11:53:48;99113.66;;;8.87;82.58
52745;BME280;38637;49.984;20.426;2022-11-15T11:56:20;99145.47;;;9.09;82.17
52745;BME280;38637;49.984;20.426;2022-11-15T11:58:47;99136.78;;;9.12;82.00
52745;BME280;38637;49.984;20.426;2022-11-15T12:01:55;99144.19;;;9.16;81.93
52745;BME280;38637;49.984;20.426;2022-11-15T12:04:03;99135.19;;;9.16;82.20
52745;BME280;38637;49.984;20.426;2022-11-15T12:06:35;99137.66;;;9.17;82.19
52745;BME280;38637;49.984;20.426;2022-11-15T12:14:36;99122.22;;;9.28;81.91
52745;BME280;38637;49.984;20.426;2022-11-15T12:17:04;99129.09;;;9.36;81.91
52745;BME280;38637;49.984;20.426;2022-11-15T12:19:29;99121.56;;;9.43;81.83
52745;BME280;38637;49.984;20.426;2022-11-15T12:21:58;99122.13;;;9.50;82.04
52745;BME280;38637;49.984;20.426;2022-11-15T12:24:26;99113.72;;;9.57;81.96
52745;BME280;38637;49.984;20.426;2022-11-15T12:27:08;99119.78;;;9.64;81.94
52745;BME280;38637;49.984;20.426;2022-11-15T12:29:39;99111.41;;;9.71;82.02
52745;BME280;38637;49.984;20.426;2022-11-15T12:32:05;99115.78;;;9.77;82.10
52745;BME280;38637;49.984;20.426;2022-11-15T12:34:43;99109.81;;;9.80;82.13
52745;BME280;38637;49.984;20.426;2022-11-15T12:45:00;99105.44;;;9.79;81.78
52745;BME280;38637;49.984;20.426;2022-11-15T12:47:26;99107.34;;;9.78;81.99
52745;BME280;38637;49.984;20.426;2022-11-15T12:49:51;99096.97;;;9.75;81.94
52745;BME280;38637;49.984;20.426;2022-11-15T12:52:17;99088.22;;;9.73;81.68
52745;BME280;38637;49.984;20.426;2022-11-15T12:59:53;99084.13;;;9.71;81.38
52745;BME280;38637;49.984;20.426;2022-11-15T13:04:55;99081.69;;;9.74;81.34
52745;BME280;38637;49.984;20.426;2022-11-15T13:17:39;99073.31;;;9.91;80.33
52745;BME280;38637;49.984;20.426;2022-11-15T13:22:39;99075.22;;;9.90;80.30
52745;BME280;38637;49.984;20.426;2022-11-15T13:27:46;99077.72;;;9.92;80.51
52745;BME280;38637;49.984;20.426;2022-11-15T13:30:30;99071.94;;;9.88;80.01
52745;BME280;38637;49.984;20.426;2022-11-15T13:32:57;99057.72;;;9.81;79.85
52745;BME280;38637;49.984;20.426;2022-11-15T13:35:25;99064.81;;;9.77;79.98
52745;BME280;38637;49.984;20.426;2022-11-15T13:37:51;99068.88;;;9.75;79.81
52745;BME280;38637;49.984;20.426;2022-11-15T13:42:42;99053.81;;;9.67;80.20
52745;BME280;38637;49.984;20.426;2022-11-15T13:45:12;99048.34;;;9.62;80.28
52745;BME280;38637;49.984;20.426;2022-11-15T13:47:37;99044.50;;;9.58;80.77
52745;BME280;38637;49.984;20.426;2022-11-15T13:50:03;99049.66;;;9.54;80.78
52745;BME280;38637;49.984;20.426;2022-11-15T13:52:31;99049.66;;;9.54;80.86
52745;BME280;38637;49.984;20.426;2022-11-15T14:00:00;99037.69;;;9.55;81.24
52745;BME280;38637;49.984;20.426;2022-11-15T14:02:29;99039.03;;;9.58;80.95
52745;BME280;38637;49.984;20.426;2022-11-15T14:04:56;99036.63;;;9.61;81.32
52745;BME280;38637;49.984;20.426;2022-11-15T14:07:23;99037.16;;;9.63;80.94
52745;BME280;38637;49.984;20.426;2022-11-15T14:09:49;99033.38;;;9.64;81.19
52745;BME280;38637;49.984;20.426;2022-11-15T14:12:25;99026.84;;;9.65;81.23
52745;BME280;38637;49.984;20.426;2022-11-15T14:14:51;99026.25;;;9.63;81.53
52745;BME280;38637;49.984;20.426;2022-11-15T14:17:21;99023.81;;;9.62;81.17
52745;BME280;38637;49.984;20.426;2022-11-15T14:19:48;99018.91;;;9.59;81.40
52745;BME280;38637;49.984;20.426;2022-11-15T14:22:18;99016.41;;;9.57;81.34
52745;BME280;38637;49.984;20.426;2022-11-15T14:24:47;99014.78;;;9.56;81.22
52745;BME280;38637;49.984;20.426;2022-11-15T14:27:30;99022.69;;;9.58;81.44
52745;BME280;38637;49.984;20.426;2022-11-15T14:29:56;99005.25;;;9.59;81.54
52745;BME280;38637;49.984;20.426;2022-11-15T14:32:22;99006.09;;;9.59;81.41
52745;BME280;38637;49.984;20.426;2022-11-15T14:34:59;99016.69;;;9.56;81.25
52745;BME280;38637;49.984;20.426;2022-11-15T14:37:26;99013.13;;;9.50;81.18
52745;BME280;38637;49.984;20.426;2022-11-15T14:39:51;99011.16;;;9.46;81.36
52745;BME280;38637;49.984;20.426;2022-11-15T14:42:17;99005.72;;;9.46;81.66
52745;BME280;38637;49.984;20.426;2022-11-15T14:44:43;99005.72;;;9.46;81.60
52745;BME280;38637;49.984;20.426;2022-11-15T14:47:08;99009.28;;;9.46;81.69
52745;BME280;38637;49.984;20.426;2022-11-15T14:49:33;99002.75;;;9.47;81.73
52745;BME280;38637;49.984;20.426;2022-11-15T14:51:58;98999.72;;;9.49;82.12
52745;BME280;38637;49.984;20.426;2022-11-15T14:54:23;98993.47;;;9.48;82.13
52745;BME280;38637;49.984;20.426;2022-11-15T14:56:49;98989.38;;;9.46;81.98
52745;BME280;38637;49.984;20.426;2022-11-15T14:59:14;98994.28;;;9.43;81.69